sensor_id;sensor_type;location;lat;lon;timestamp;pressure;altitude;pressure_sealevel;temperature;humidity
23241;BME280;11789;53.482;9.862;2023-09-08T00:01:59;102166.75;;;18.36;86.06
23241;BME280;11789;53.482;9.862;2023-09-08T00:04:24;102166.72;;;18.37;86.27
23241;BME280;11789;53.482;9.862;2023-09-08T00:06:50;102167.66;;;18.33;86.51
23241;BME280;11789;53.482;9.862;2023-09-08T00:09:15;102172.06;;;18.30;86.50
23241;BME280;11789;53.482;9.862;2023-09-08T00:11:41;102169.47;;;18.30;86.55
23241;BME280;11789;53.482;9.862;2023-09-08T00:14:06;102170.34;;;18.27;86.67
23241;BME280;11789;53.482;9.862;2023-09-08T00:16:32;102165.97;;;18.28;86.56
23241;BME280;11789;53.482;9.862;2023-09-08T00:18:58;102166.91;;;18.22;86.77
23241;BME280;11789;53.482;9.862;2023-09-08T00:21:24;102165.22;;;18.18;86.80
23241;BME280;11789;53.482;9.862;2023-09-08T00:23:51;102163.50;;;18.14;87.27
23241;BME280;11789;53.482;9.862;2023-09-08T00:26:16;102159.22;;;18.10;87.80
23241;BME280;11789;53.482;9.862;2023-09-08T00:28:42;102154.88;;;18.04;87.87
23241;BME280;11789;53.482;9.862;2023-09-08T00:31:07;102150.59;;;18.00;88.19
23241;BME280;11789;53.482;9.862;2023-09-08T00:33:33;102151.47;;;17.98;88.26
23241;BME280;11789;53.482;9.862;2023-09-08T00:35:58;102151.53;;;17.95;88.52
23241;BME280;11789;53.482;9.862;2023-09-08T00:38:24;102144.56;;;17.92;88.61
23241;BME280;11789;53.482;9.862;2023-09-08T00:40:50;102149.84;;;17.91;88.65
23241;BME280;11789;53.482;9.862;2023-09-08T00:43:16;102138.56;;;17.82;88.81
23241;BME280;11789;53.482;9.862;2023-09-08T00:45:43;102142.97;;;17.80;89.19
23241;BME280;11789;53.482;9.862;2023-09-08T00:48:09;102133.44;;;17.75;89.37
23241;BME280;11789;53.482;9.862;2023-09-08T00:50:36;102132.56;;;17.74;89.52
23241;BME280;11789;53.482;9.862;2023-09-08T00:53:03;102132.56;;;17.71;89.58
23241;BME280;11789;53.482;9.862;2023-09-08T00:55:29;102134.34;;;17.69;89.95
23241;BME280;11789;53.482;9.862;2023-09-08T00:57:56;102136.97;;;17.66;89.86
23241;BME280;11789;53.482;9.862;2023-09-08T01:00:21;102130.00;;;17.63;89.97
23241;BME280;11789;53.482;9.862;2023-09-08T01:02:47;102135.25;;;17.65;90.00
23241;BME280;11789;53.482;9.862;2023-09-08T01:05:12;102136.97;;;17.66;89.93
23241;BME280;11789;53.482;9.862;2023-09-08T01:07:39;102134.38;;;17.63;89.83
23241;BME280;11789;53.482;9.862;2023-09-08T01:10:06;102137.84;;;17.63;90.25
23241;BME280;11789;53.482;9.862;2023-09-08T01:12:32;102132.72;;;17.53;90.40
23241;BME280;11789;53.482;9.862;2023-09-08T01:15:03;102124.00;;;17.52;90.85
23241;BME280;11789;53.482;9.862;2023-09-08T01:17:30;102136.28;;;17.49;91.19
23241;BME280;11789;53.482;9.862;2023-09-08T01:19:56;102131.97;;;17.38;91.31
23241;BME280;11789;53.482;9.862;2023-09-08T01:25:18;102132.91;;;17.33;91.94
23241;BME280;11789;53.482;9.862;2023-09-08T01:27:50;102129.47;;;17.29;91.84
23241;BME280;11789;53.482;9.862;2023-09-08T01:30:16;102138.16;;;17.28;91.76
23241;BME280;11789;53.482;9.862;2023-09-08T01:32:42;102135.63;;;17.24;91.65
23241;BME280;11789;53.482;9.862;2023-09-08T01:35:09;102130.41;;;17.18;92.10
23241;BME280;11789;53.482;9.862;2023-09-08T01:37:35;102138.25;;;17.21;92.24
23241;BME280;11789;53.482;9.862;2023-09-08T01:40:01;102131.25;;;17.24;92.19
23241;BME280;11789;53.482;9.862;2023-09-08T01:42:26;102129.47;;;17.26;91.72
23241;BME280;11789;53.482;9.862;2023-09-08T01:44:52;102119.13;;;17.16;91.95
23241;BME280;11789;53.482;9.862;2023-09-08T01:47:17;102125.25;;;17.11;92.29
23241;BME280;11789;53.482;9.862;2023-09-08T01:49:43;102124.41;;;17.06;92.21
23241;BME280;11789;53.482;9.862;2023-09-08T01:52:08;102125.31;;;17.02;92.46
23241;BME280;11789;53.482;9.862;2023-09-08T01:54:34;102122.72;;;17.01;92.81
23241;BME280;11789;53.482;9.862;2023-09-08T01:56:59;102119.28;;;16.93;92.86
23241;BME280;11789;53.482;9.862;2023-09-08T01:59:25;102121.09;;;16.84;93.36
23241;BME280;11789;53.482;9.862;2023-09-08T02:01:50;102117.59;;;16.82;94.09
23241;BME280;11789;53.482;9.862;2023-09-08T02:04:15;102122.03;;;16.74;94.65
23241;BME280;11789;53.482;9.862;2023-09-08T02:06:41;102115.06;;;16.72;94.88
23241;BME280;11789;53.482;9.862;2023-09-08T02:09:07;102119.41;;;16.74;95.06
23241;BME280;11789;53.482;9.862;2023-09-08T02:11:35;102110.69;;;16.78;94.80
23241;BME280;11789;53.482;9.862;2023-09-08T02:14:00;102110.66;;;16.81;94.49
23241;BME280;11789;53.482;9.862;2023-09-08T02:16:26;102110.63;;;16.84;94.05
23241;BME280;11789;53.482;9.862;2023-09-08T02:18:51;102117.63;;;16.79;93.96
23241;BME280;11789;53.482;9.862;2023-09-08T02:21:17;102109.81;;;16.79;93.90
23241;BME280;11789;53.482;9.862;2023-09-08T02:23:42;102115.91;;;16.75;93.75
23241;BME280;11789;53.482;9.862;2023-09-08T02:26:07;102112.47;;;16.69;94.04
23241;BME280;11789;53.482;9.862;2023-09-08T02:28:33;102109.84;;;16.69;94.10
23241;BME280;11789;53.482;9.862;2023-09-08T02:30:58;102115.94;;;16.69;93.83
23241;BME280;11789;53.482;9.862;2023-09-08T02:33:24;102116.78;;;16.70;94.06
23241;BME280;11789;53.482;9.862;2023-09-08T02:35:49;102111.56;;;16.70;94.10
23241;BME280;11789;53.482;9.862;2023-09-08T02:38:14;102109.00;;;16.73;93.99
23241;BME280;11789;53.482;9.862;2023-09-08T02:40:40;102104.63;;;16.69;93.77
23241;BME280;11789;53.482;9.862;2023-09-08T02:43:05;102107.25;;;16.64;93.82
23241;BME280;11789;53.482;9.862;2023-09-08T02:45:31;102109.88;;;16.59;93.79
23241;BME280;11789;53.482;9.862;2023-09-08T02:47:56;102119.50;;;16.57;93.96
23241;BME280;11789;53.482;9.862;2023-09-08T02:50:22;102109.94;;;16.53;94.10
23241;BME280;11789;53.482;9.862;2023-09-08T02:52:48;102111.69;;;16.50;94.30
23241;BME280;11789;53.482;9.862;2023-09-08T02:55:13;102104.75;;;16.46;94.50
23241;BME280;11789;53.482;9.862;2023-09-08T02:57:39;102113.47;;;16.43;94.72
23241;BME280;11789;53.482;9.862;2023-09-08T03:00:05;102105.63;;;16.42;94.82
23241;BME280;11789;53.482;9.862;2023-09-08T03:02:33;102112.59;;;16.43;94.92
23241;BME280;11789;53.482;9.862;2023-09-08T03:04:58;102111.72;;;16.41;95.01
23241;BME280;11789;53.482;9.862;2023-09-08T03:07:24;102102.16;;;16.41;95.29
23241;BME280;11789;53.482;9.862;2023-09-08T03:09:49;102102.16;;;16.43;95.37
23241;BME280;11789;53.482;9.862;2023-09-08T03:12:14;102093.44;;;16.44;95.37
23241;BME280;11789;53.482;9.862;2023-09-08T03:14:40;102092.56;;;16.45;95.30
23241;BME280;11789;53.482;9.862;2023-09-08T03:17:05;102095.19;;;16.48;95.42
23241;BME280;11789;53.482;9.862;2023-09-08T03:19:31;102090.81;;;16.47;95.59
23241;BME280;11789;53.482;9.862;2023-09-08T03:21:56;102095.19;;;16.48;95.41
23241;BME280;11789;53.482;9.862;2023-09-08T03:24:22;102089.91;;;16.51;94.94
23241;BME280;11789;53.482;9.862;2023-09-08T03:26:47;102091.66;;;16.50;95.04
23241;BME280;11789;53.482;9.862;2023-09-08T03:29:13;102088.16;;;16.51;95.30
23241;BME280;11789;53.482;9.862;2023-09-08T03:31:38;102088.22;;;16.48;95.48
23241;BME280;11789;53.482;9.862;2023-09-08T03:34:04;102083.00;;;16.48;95.73
23241;BME280;11789;53.482;9.862;2023-09-08T03:36:30;102075.16;;;16.48;95.90
23241;BME280;11789;53.482;9.862;2023-09-08T03:38:56;102081.22;;;16.47;95.95
23241;BME280;11789;53.482;9.862;2023-09-08T03:41:23;102082.09;;;16.46;96.00
23241;BME280;11789;53.482;9.862;2023-09-08T03:43:48;102081.25;;;16.46;96.06
23241;BME280;11789;53.482;9.862;2023-09-08T03:46:14;102079.53;;;16.45;96.31
23241;BME280;11789;53.482;9.862;2023-09-08T03:48:40;102072.56;;;16.45;96.00
23241;BME280;11789;53.482;9.862;2023-09-08T03:51:05;102069.97;;;16.44;95.99
23241;BME280;11789;53.482;9.862;2023-09-08T03:53:31;102070.81;;;16.46;96.02
23241;BME280;11789;53.482;9.862;2023-09-08T03:55:56;102070.81;;;16.44;96.09
23241;BME280;11789;53.482;9.862;2023-09-08T03:58:22;102072.56;;;16.44;96.26
23241;BME280;11789;53.482;9.862;2023-09-08T04:00:47;102065.62;;;16.43;96.15
23241;BME280;11789;53.482;9.862;2023-09-08T04:03:12;102066.47;;;16.42;95.97
23241;BME280;11789;53.482;9.862;2023-09-08T04:05:38;102070.00;;;16.38;96.02
23241;BME280;11789;53.482;9.862;2023-09-08T04:08:04;102061.31;;;16.32;96.39
23241;BME280;11789;53.482;9.862;2023-09-08T04:10:30;102067.41;;;16.31;96.78
23241;BME280;11789;53.482;9.862;2023-09-08T04:12:55;102064.81;;;16.30;96.89
23241;BME280;11789;53.482;9.862;2023-09-08T04:15:21;102061.34;;;16.28;96.94
23241;BME280;11789;53.482;9.862;2023-09-08T04:17:47;102068.31;;;16.27;97.07
23241;BME280;11789;53.482;9.862;2023-09-08T04:20:12;102063.09;;;16.27;97.20
23241;BME280;11789;53.482;9.862;2023-09-08T04:22:40;102071.78;;;16.28;97.21
23241;BME280;11789;53.482;9.862;2023-09-08T04:25:06;102065.72;;;16.27;97.48
23241;BME280;11789;53.482;9.862;2023-09-08T04:27:31;102069.16;;;16.29;97.46
23241;BME280;11789;53.482;9.862;2023-09-08T04:29:57;102058.72;;;16.29;97.42
23241;BME280;11789;53.482;9.862;2023-09-08T04:32:24;102054.38;;;16.30;97.21
23241;BME280;11789;53.482;9.862;2023-09-08T04:34:50;102059.59;;;16.28;97.32
23241;BME280;11789;53.482;9.862;2023-09-08T04:37:16;102056.97;;;16.27;97.38
23241;BME280;11789;53.482;9.862;2023-09-08T04:39:41;102059.63;;;16.24;97.70
23241;BME280;11789;53.482;9.862;2023-09-08T04:42:07;102053.53;;;16.22;97.75
23241;BME280;11789;53.482;9.862;2023-09-08T04:44:32;102052.69;;;16.18;97.90
23241;BME280;11789;53.482;9.862;2023-09-08T04:46:58;102053.56;;;16.17;98.22
23241;BME280;11789;53.482;9.862;2023-09-08T04:49:23;102051.84;;;16.13;98.42
23241;BME280;11789;53.482;9.862;2023-09-08T04:51:49;102045.78;;;16.13;98.69
23241;BME280;11789;53.482;9.862;2023-09-08T04:54:14;102043.16;;;16.13;98.82
23241;BME280;11789;53.482;9.862;2023-09-08T04:56:39;102043.16;;;16.13;98.98
23241;BME280;11789;53.482;9.862;2023-09-08T04:59:06;102038.78;;;16.12;99.01
23241;BME280;11789;53.482;9.862;2023-09-08T05:01:31;102044.00;;;16.12;99.10
23241;BME280;11789;53.482;9.862;2023-09-08T05:03:58;102042.28;;;16.11;99.21
23241;BME280;11789;53.482;9.862;2023-09-08T05:06:24;102043.19;;;16.08;99.36
23241;BME280;11789;53.482;9.862;2023-09-08T05:08:50;102043.16;;;16.09;99.43
23241;BME280;11789;53.482;9.862;2023-09-08T05:11:15;102037.09;;;16.07;99.65
23241;BME280;11789;53.482;9.862;2023-09-08T05:13:42;102038.81;;;16.08;99.77
23241;BME280;11789;53.482;9.862;2023-09-08T05:16:07;102032.72;;;16.11;99.71
23241;BME280;11789;53.482;9.862;2023-09-08T05:18:39;102037.94;;;16.13;99.87
23241;BME280;11789;53.482;9.862;2023-09-08T05:21:05;102041.38;;;16.19;99.58
23241;BME280;11789;53.482;9.862;2023-09-08T05:23:31;102033.53;;;16.24;99.59
23241;BME280;11789;53.482;9.862;2023-09-08T05:25:57;102038.69;;;16.31;99.14
23241;BME280;11789;53.482;9.862;2023-09-08T05:28:22;102035.19;;;16.37;99.26
23241;BME280;11789;53.482;9.862;2023-09-08T05:30:50;102029.94;;;16.43;99.01
23241;BME280;11789;53.482;9.862;2023-09-08T05:33:16;102036.00;;;16.48;98.72
23241;BME280;11789;53.482;9.862;2023-09-08T05:35:42;102033.37;;;16.53;98.15
23241;BME280;11789;53.482;9.862;2023-09-08T05:38:07;102030.72;;;16.56;97.92
23241;BME280;11789;53.482;9.862;2023-09-08T05:40:34;102037.63;;;16.65;97.78
23241;BME280;11789;53.482;9.862;2023-09-08T05:42:59;102034.13;;;16.69;97.45
23241;BME280;11789;53.482;9.862;2023-09-08T05:45:25;102040.19;;;16.75;96.99
23241;BME280;11789;53.482;9.862;2023-09-08T05:47:51;102030.56;;;16.80;96.87
23241;BME280;11789;53.482;9.862;2023-09-08T05:50:17;102020.06;;;16.86;96.60
23241;BME280;11789;53.482;9.862;2023-09-08T05:52:43;102026.97;;;16.95;96.00
23241;BME280;11789;53.482;9.862;2023-09-08T05:55:08;102017.31;;;17.03;95.47
23241;BME280;11789;53.482;9.862;2023-09-08T05:57:34;102015.53;;;17.07;94.99
23241;BME280;11789;53.482;9.862;2023-09-08T06:00:00;102018.06;;;17.13;94.64
23241;BME280;11789;53.482;9.862;2023-09-08T06:02:26;102019.78;;;17.19;94.46
23241;BME280;11789;53.482;9.862;2023-09-08T06:04:51;102008.44;;;17.20;93.81
23241;BME280;11789;53.482;9.862;2023-09-08T06:07:17;102016.22;;;17.26;94.32
23241;BME280;11789;53.482;9.862;2023-09-08T06:09:42;102017.88;;;17.36;93.40
23241;BME280;11789;53.482;9.862;2023-09-08T06:12:08;102012.56;;;17.42;93.17
23241;BME280;11789;53.482;9.862;2023-09-08T06:14:33;102017.78;;;17.45;92.75
23241;BME280;11789;53.482;9.862;2023-09-08T06:16:59;102014.25;;;17.48;91.86
23241;BME280;11789;53.482;9.862;2023-09-08T06:19:24;102018.62;;;17.49;92.01
23241;BME280;11789;53.482;9.862;2023-09-08T06:21:50;102021.16;;;17.53;91.58
23241;BME280;11789;53.482;9.862;2023-09-08T06:24:15;102013.28;;;17.56;91.31
23241;BME280;11789;53.482;9.862;2023-09-08T06:26:40;102017.56;;;17.62;91.45
23241;BME280;11789;53.482;9.862;2023-09-08T06:29:08;102017.50;;;17.68;91.01
23241;BME280;11789;53.482;9.862;2023-09-08T06:31:33;102020.09;;;17.74;90.84
23241;BME280;11789;53.482;9.862;2023-09-08T06:33:59;102023.56;;;17.75;90.57
23241;BME280;11789;53.482;9.862;2023-09-08T06:36:24;102022.63;;;17.79;90.84
23241;BME280;11789;53.482;9.862;2023-09-08T06:38:49;102029.59;;;17.81;90.66
23241;BME280;11789;53.482;9.862;2023-09-08T06:41:15;102023.44;;;17.85;90.50
23241;BME280;11789;53.482;9.862;2023-09-08T06:43:40;102024.25;;;17.91;90.68
23241;BME280;11789;53.482;9.862;2023-09-08T06:46:07;102029.41;;;17.94;90.58
23241;BME280;11789;53.482;9.862;2023-09-08T06:48:33;102037.25;;;17.97;90.68
23241;BME280;11789;53.482;9.862;2023-09-08T06:50:58;102049.41;;;17.99;90.82
23241;BME280;11789;53.482;9.862;2023-09-08T06:53:24;102043.28;;;18.02;90.78
23241;BME280;11789;53.482;9.862;2023-09-08T06:55:50;102039.72;;;18.07;90.53
23241;BME280;11789;53.482;9.862;2023-09-08T06:58:15;102040.56;;;18.11;90.57
23241;BME280;11789;53.482;9.862;2023-09-08T07:00:41;102044.88;;;18.15;89.99
23241;BME280;11789;53.482;9.862;2023-09-08T07:03:07;102036.06;;;18.19;89.59
23241;BME280;11789;53.482;9.862;2023-09-08T07:05:37;102035.12;;;18.23;89.44
23241;BME280;11789;53.482;9.862;2023-09-08T07:08:03;102035.12;;;18.23;89.05
23241;BME280;11789;53.482;9.862;2023-09-08T07:10:29;102038.56;;;18.30;89.30
23241;BME280;11789;53.482;9.862;2023-09-08T07:12:54;102033.22;;;18.36;89.23
23241;BME280;11789;53.482;9.862;2023-09-08T07:15:20;102035.81;;;18.37;88.83
23241;BME280;11789;53.482;9.862;2023-09-08T07:17:45;102029.63;;;18.43;88.89
23241;BME280;11789;53.482;9.862;2023-09-08T07:20:10;102035.66;;;18.48;88.98
23241;BME280;11789;53.482;9.862;2023-09-08T07:22:36;102029.50;;;18.52;89.20
23241;BME280;11789;53.482;9.862;2023-09-08T07:25:02;102032.91;;;18.57;88.41
23241;BME280;11789;53.482;9.862;2023-09-08T07:27:28;102025.88;;;18.61;88.07
23241;BME280;11789;53.482;9.862;2023-09-08T07:29:53;102024.00;;;18.67;87.91
23241;BME280;11789;53.482;9.862;2023-09-08T07:32:18;102025.66;;;18.75;88.20
23241;BME280;11789;53.482;9.862;2023-09-08T07:34:44;102028.22;;;18.81;88.20
23241;BME280;11789;53.482;9.862;2023-09-08T07:37:09;102026.37;;;18.86;87.61
23241;BME280;11789;53.482;9.862;2023-09-08T07:39:35;102032.31;;;18.96;87.80
23241;BME280;11789;53.482;9.862;2023-09-08T07:42:01;102032.25;;;18.99;86.84
23241;BME280;11789;53.482;9.862;2023-09-08T07:44:27;102033.06;;;19.04;86.51
23241;BME280;11789;53.482;9.862;2023-09-08T07:46:52;102030.31;;;19.10;85.25
23241;BME280;11789;53.482;9.862;2023-09-08T07:49:20;102030.31;;;19.10;85.25
23241;BME280;11789;53.482;9.862;2023-09-08T07:51:46;102025.03;;;19.13;85.50
23241;BME280;11789;53.482;9.862;2023-09-08T07:54:12;102026.59;;;19.23;86.61
23241;BME280;11789;53.482;9.862;2023-09-08T07:56:37;102020.34;;;19.30;85.59
23241;BME280;11789;53.482;9.862;2023-09-08T07:59:03;102021.09;;;19.37;85.23
23241;BME280;11789;53.482;9.862;2023-09-08T08:01:28;102016.56;;;19.45;85.92
23241;BME280;11789;53.482;9.862;2023-09-08T08:03:54;102022.63;;;19.49;84.33
23241;BME280;11789;53.482;9.862;2023-09-08T08:06:19;102027.81;;;19.52;83.83
23241;BME280;11789;53.482;9.862;2023-09-08T08:08:45;102025.16;;;19.53;84.05
23241;BME280;11789;53.482;9.862;2023-09-08T08:11:15;102022.44;;;19.56;84.33
23241;BME280;11789;53.482;9.862;2023-09-08T08:13:43;102028.47;;;19.64;84.67
23241;BME280;11789;53.482;9.862;2023-09-08T08:16:09;102027.53;;;19.67;83.17
23241;BME280;11789;53.482;9.862;2023-09-08T08:18:34;102024.84;;;19.70;83.28
23241;BME280;11789;53.482;9.862;2023-09-08T08:21:00;102018.59;;;19.77;83.02
23241;BME280;11789;53.482;9.862;2023-09-08T08:23:26;102019.38;;;19.81;83.34
23241;BME280;11789;53.482;9.862;2023-09-08T08:25:51;102021.00;;;19.86;83.87
23241;BME280;11789;53.482;9.862;2023-09-08T08:28:17;102027.91;;;19.90;83.39
23241;BME280;11789;53.482;9.862;2023-09-08T08:30:42;102024.28;;;19.98;82.78
23241;BME280;11789;53.482;9.862;2023-09-08T08:33:08;102019.91;;;19.98;82.81
23241;BME280;11789;53.482;9.862;2023-09-08T08:35:33;102024.09;;;20.05;83.20
23241;BME280;11789;53.482;9.862;2023-09-08T08:37:59;102015.22;;;20.11;82.84
23241;BME280;11789;53.482;9.862;2023-09-08T08:40:27;102014.13;;;20.21;82.61
23241;BME280;11789;53.482;9.862;2023-09-08T08:42:57;102016.59;;;20.29;83.13
23241;BME280;11789;53.482;9.862;2023-09-08T08:45:24;102013.88;;;20.33;82.36
23241;BME280;11789;53.482;9.862;2023-09-08T08:47:53;102006.81;;;20.35;82.38
23241;BME280;11789;53.482;9.862;2023-09-08T08:50:19;102012.81;;;20.40;82.80
23241;BME280;11789;53.482;9.862;2023-09-08T08:52:45;102017.94;;;20.46;83.47
23241;BME280;11789;53.482;9.862;2023-09-08T08:55:11;102010.88;;;20.50;83.69
23241;BME280;11789;53.482;9.862;2023-09-08T08:57:37;102018.50;;;20.61;82.44
23241;BME280;11789;53.482;9.862;2023-09-08T09:00:07;102012.16;;;20.68;81.07
23241;BME280;11789;53.482;9.862;2023-09-08T09:02:37;102006.78;;;20.74;81.58
23241;BME280;11789;53.482;9.862;2023-09-08T09:05:04;102006.69;;;20.77;82.16
23241;BME280;11789;53.482;9.862;2023-09-08T09:07:31;102008.28;;;20.84;82.55
23241;BME280;11789;53.482;9.862;2023-09-08T09:09:57;102013.16;;;20.99;82.29
23241;BME280;11789;53.482;9.862;2023-09-08T09:12:24;102014.81;;;21.04;81.48
23241;BME280;11789;53.482;9.862;2023-09-08T09:14:52;102017.22;;;21.11;80.13
23241;BME280;11789;53.482;9.862;2023-09-08T09:17:18;102014.59;;;21.11;79.98
23241;BME280;11789;53.482;9.862;2023-09-08T09:19:44;102014.47;;;21.16;80.62
23241;BME280;11789;53.482;9.862;2023-09-08T09:22:09;102013.44;;;21.21;80.56
23241;BME280;11789;53.482;9.862;2023-09-08T09:24:38;102009.72;;;21.29;80.62
23241;BME280;11789;53.482;9.862;2023-09-08T09:27:06;102013.19;;;21.32;81.00
23241;BME280;11789;53.482;9.862;2023-09-08T09:29:33;102003.44;;;21.36;81.98
23241;BME280;11789;53.482;9.862;2023-09-08T09:32:04;102009.50;;;21.39;82.33
23241;BME280;11789;53.482;9.862;2023-09-08T09:34:29;102001.41;;;21.45;82.51
23241;BME280;11789;53.482;9.862;2023-09-08T09:36:55;102000.28;;;21.54;81.61
23241;BME280;11789;53.482;9.862;2023-09-08T09:39:22;102002.66;;;21.63;81.05
23241;BME280;11789;53.482;9.862;2023-09-08T09:41:49;101993.63;;;21.72;79.30
23241;BME280;11789;53.482;9.862;2023-09-08T09:44:18;102004.16;;;21.72;79.75
23241;BME280;11789;53.482;9.862;2023-09-08T09:46:45;102002.94;;;21.84;79.96
23241;BME280;11789;53.482;9.862;2023-09-08T09:49:16;101997.41;;;21.93;79.87
23241;BME280;11789;53.482;9.862;2023-09-08T09:51:46;101991.19;;;21.95;79.32
23241;BME280;11789;53.482;9.862;2023-09-08T09:54:13;101986.44;;;22.07;79.50
23241;BME280;11789;53.482;9.862;2023-09-08T09:56:39;101985.34;;;22.15;79.43
23241;BME280;11789;53.482;9.862;2023-09-08T09:59:08;101986.00;;;22.22;79.17
23241;BME280;11789;53.482;9.862;2023-09-08T10:01:34;101980.41;;;22.33;79.08
23241;BME280;11789;53.482;9.862;2023-09-08T10:04:00;101976.69;;;22.38;79.23
23241;BME280;11789;53.482;9.862;2023-09-08T10:06:26;101970.22;;;22.48;77.78
23241;BME280;11789;53.482;9.862;2023-09-08T10:08:52;101972.63;;;22.56;77.58
23241;BME280;11789;53.482;9.862;2023-09-08T10:11:21;101972.34;;;22.64;77.67
23241;BME280;11789;53.482;9.862;2023-09-08T10:13:51;101978.09;;;22.75;76.65
23241;BME280;11789;53.482;9.862;2023-09-08T10:16:19;101970.66;;;22.88;76.06
23241;BME280;11789;53.482;9.862;2023-09-08T10:18:47;101970.53;;;22.92;76.30
23241;BME280;11789;53.482;9.862;2023-09-08T10:21:13;101971.31;;;22.94;76.22
23241;BME280;11789;53.482;9.862;2023-09-08T10:23:40;101968.59;;;22.97;76.42
23241;BME280;11789;53.482;9.862;2023-09-08T10:26:11;101971.78;;;23.07;74.88
23241;BME280;11789;53.482;9.862;2023-09-08T10:28:37;101962.37;;;23.23;74.24
23241;BME280;11789;53.482;9.862;2023-09-08T10:31:04;101960.38;;;23.30;73.84
23241;BME280;11789;53.482;9.862;2023-09-08T10:33:31;101953.06;;;23.38;73.17
23241;BME280;11789;53.482;9.862;2023-09-08T10:35:59;101945.13;;;23.38;71.49
23241;BME280;11789;53.482;9.862;2023-09-08T10:38:31;101948.22;;;23.49;71.91
23241;BME280;11789;53.482;9.862;2023-09-08T10:43:44;101942.72;;;23.55;73.37
23241;BME280;11789;53.482;9.862;2023-09-08T10:46:11;101944.25;;;23.61;74.36
23241;BME280;11789;53.482;9.862;2023-09-08T10:48:46;101944.22;;;23.63;72.40
23241;BME280;11789;53.482;9.862;2023-09-08T10:51:15;101949.41;;;23.66;72.37
23241;BME280;11789;53.482;9.862;2023-09-08T10:53:42;101936.84;;;23.72;70.72
23241;BME280;11789;53.482;9.862;2023-09-08T10:56:07;101939.16;;;23.80;71.35
23241;BME280;11789;53.482;9.862;2023-09-08T10:58:37;101936.19;;;23.89;70.59
23241;BME280;11789;53.482;9.862;2023-09-08T11:01:05;101943.75;;;23.98;70.71
23241;BME280;11789;53.482;9.862;2023-09-08T11:06:03;101941.34;;;24.14;69.46
23241;BME280;11789;53.482;9.862;2023-09-08T11:08:29;101942.69;;;24.24;68.51
23241;BME280;11789;53.482;9.862;2023-09-08T11:10:55;101935.09;;;24.39;67.06
23241;BME280;11789;53.482;9.862;2023-09-08T11:13:21;101935.09;;;24.39;66.97
23241;BME280;11789;53.482;9.862;2023-09-08T11:15:46;101932.09;;;24.46;66.97
23241;BME280;11789;53.482;9.862;2023-09-08T11:18:12;101929.28;;;24.51;68.18
23241;BME280;11789;53.482;9.862;2023-09-08T11:20:37;101931.91;;;24.51;67.50
23241;BME280;11789;53.482;9.862;2023-09-08T11:23:03;101925.50;;;24.56;67.67
23241;BME280;11789;53.482;9.862;2023-09-08T11:25:32;101922.09;;;24.54;67.86
23241;BME280;11789;53.482;9.862;2023-09-08T11:27:58;101915.09;;;24.53;67.48
23241;BME280;11789;53.482;9.862;2023-09-08T11:30:25;101916.66;;;24.57;68.25
23241;BME280;11789;53.482;9.862;2023-09-08T11:32:50;101919.25;;;24.59;67.43
23241;BME280;11789;53.482;9.862;2023-09-08T11:35:16;101916.41;;;24.64;66.72
23241;BME280;11789;53.482;9.862;2023-09-08T11:37:46;101917.19;;;24.66;66.43
23241;BME280;11789;53.482;9.862;2023-09-08T11:40:12;101917.47;;;24.59;67.34
23241;BME280;11789;53.482;9.862;2023-09-08T11:42:43;101912.63;;;24.69;63.64
23241;BME280;11789;53.482;9.862;2023-09-08T11:45:14;101917.47;;;24.80;62.59
23241;BME280;11789;53.482;9.862;2023-09-08T11:47:43;101910.03;;;24.88;62.40
23241;BME280;11789;53.482;9.862;2023-09-08T11:50:10;101917.72;;;24.94;62.89
23241;BME280;11789;53.482;9.862;2023-09-08T11:52:40;101910.88;;;25.09;56.62
23241;BME280;11789;53.482;9.862;2023-09-08T11:55:06;101911.69;;;25.11;58.06
23241;BME280;11789;53.482;9.862;2023-09-08T11:57:32;101906.84;;;25.21;57.46
23241;BME280;11789;53.482;9.862;2023-09-08T11:59:59;101913.03;;;25.40;55.86
23241;BME280;11789;53.482;9.862;2023-09-08T12:02:25;101906.00;;;25.39;56.37
23241;BME280;11789;53.482;9.862;2023-09-08T12:04:53;101901.50;;;25.41;55.53
23241;BME280;11789;53.482;9.862;2023-09-08T12:07:19;101904.91;;;25.43;56.16
23241;BME280;11789;53.482;9.862;2023-09-08T12:09:45;101902.13;;;25.46;55.82
23241;BME280;11789;53.482;9.862;2023-09-08T12:12:13;101895.41;;;25.58;55.04
23241;BME280;11789;53.482;9.862;2023-09-08T12:14:42;101901.56;;;25.58;54.75
23241;BME280;11789;53.482;9.862;2023-09-08T12:17:08;101903.34;;;25.58;55.33
23241;BME280;11789;53.482;9.862;2023-09-08T12:19:34;101896.56;;;25.52;56.31
23241;BME280;11789;53.482;9.862;2023-09-08T12:22:03;101898.13;;;25.56;56.11
23241;BME280;11789;53.482;9.862;2023-09-08T12:27:21;101898.47;;;25.68;53.27
23241;BME280;11789;53.482;9.862;2023-09-08T12:29:59;101892.69;;;25.78;52.19
23241;BME280;11789;53.482;9.862;2023-09-08T12:32:31;101887.31;;;25.80;53.89
23241;BME280;11789;53.482;9.862;2023-09-08T12:34:58;101889.28;;;25.76;54.10
23241;BME280;11789;53.482;9.862;2023-09-08T12:37:25;101882.91;;;25.80;53.49
23241;BME280;11789;53.482;9.862;2023-09-08T12:39:53;101882.66;;;25.85;53.33
23241;BME280;11789;53.482;9.862;2023-09-08T12:42:20;101880.63;;;25.90;53.49
23241;BME280;11789;53.482;9.862;2023-09-08T12:44:46;101877.97;;;25.90;52.54
23241;BME280;11789;53.482;9.862;2023-09-08T12:47:12;101877.94;;;25.92;53.71
23241;BME280;11789;53.482;9.862;2023-09-08T12:49:38;101876.28;;;25.89;53.50
23241;BME280;11789;53.482;9.862;2023-09-08T12:52:04;101873.78;;;25.86;53.56
23241;BME280;11789;53.482;9.862;2023-09-08T12:54:30;101873.78;;;25.86;52.79
23241;BME280;11789;53.482;9.862;2023-09-08T12:56:55;101863.81;;;25.91;53.12